sensor_id;sensor_type;location;lat;lon;timestamp;temperature;humidity
38458;DHT22;24239;48.058;10.486;2023-11-22T00:01:23;5.80;99.90
38458;DHT22;24239;48.058;10.486;2023-11-22T00:04:11;5.70;99.90
38458;DHT22;24239;48.058;10.486;2023-11-22T00:06:56;5.80;99.90
38458;DHT22;24239;48.058;10.486;2023-11-22T00:09:42;5.80;99.90
38458;DHT22;24239;48.058;10.486;2023-11-22T00:12:28;5.80;99.90
38458;DHT22;24239;48.058;10.486;2023-11-22T00:15:21;5.80;99.90
38458;DHT22;24239;48.058;10.486;2023-11-22T00:18:07;5.90;99.90
38458;DHT22;24239;48.058;10.486;2023-11-22T00:20:53;5.80;99.90
38458;DHT22;24239;48.058;10.486;2023-11-22T00:23:40;5.80;99.90
38458;DHT22;24239;48.058;10.486;2023-11-22T00:26:29;5.80;99.90
38458;DHT22;24239;48.058;10.486;2023-11-22T00:29:15;5.80;99.90
38458;DHT22;24239;48.058;10.486;2023-11-22T00:32:01;5.70;99.90
38458;DHT22;24239;48.058;10.486;2023-11-22T00:34:47;5.70;99.90
38458;DHT22;24239;48.058;10.486;2023-11-22T00:37:33;5.70;99.90
38458;DHT22;24239;48.058;10.486;2023-11-22T00:40:20;5.80;99.90
38458;DHT22;24239;48.058;10.486;2023-11-22T00:43:06;5.60;99.90
38458;DHT22;24239;48.058;10.486;2023-11-22T00:45:52;5.70;99.90
38458;DHT22;24239;48.058;10.486;2023-11-22T00:48:38;5.80;99.90
38458;DHT22;24239;48.058;10.486;2023-11-22T00:51:24;5.70;99.90
38458;DHT22;24239;48.058;10.486;2023-11-22T00:54:10;5.70;99.90
38458;DHT22;24239;48.058;10.486;2023-11-22T00:56:55;5.70;99.90
38458;DHT22;24239;48.058;10.486;2023-11-22T00:59:41;5.70;99.90
38458;DHT22;24239;48.058;10.486;2023-11-22T01:02:27;5.70;99.90
38458;DHT22;24239;48.058;10.486;2023-11-22T01:05:13;5.70;99.90
38458;DHT22;24239;48.058;10.486;2023-11-22T01:08:01;5.60;99.90
38458;DHT22;24239;48.058;10.486;2023-11-22T01:10:47;5.60;99.90
38458;DHT22;24239;48.058;10.486;2023-11-22T01:13:32;5.50;99.90
38458;DHT22;24239;48.058;10.486;2023-11-22T01:16:18;5.60;99.90
38458;DHT22;24239;48.058;10.486;2023-11-22T01:19:04;5.50;99.90
38458;DHT22;24239;48.058;10.486;2023-11-22T01:21:50;5.50;99.90
38458;DHT22;24239;48.058;10.486;2023-11-22T01:24:36;5.50;99.90
38458;DHT22;24239;48.058;10.486;2023-11-22T01:27:22;5.40;99.90
38458;DHT22;24239;48.058;10.486;2023-11-22T01:30:09;5.50;99.90
38458;DHT22;24239;48.058;10.486;2023-11-22T01:32:55;5.40;99.90
38458;DHT22;24239;48.058;10.486;2023-11-22T01:35:41;5.50;99.90
38458;DHT22;24239;48.058;10.486;2023-11-22T01:38:27;5.50;99.90
38458;DHT22;24239;48.058;10.486;2023-11-22T01:41:13;5.50;99.90
38458;DHT22;24239;48.058;10.486;2023-11-22T01:43:59;5.40;99.90
38458;DHT22;24239;48.058;10.486;2023-11-22T01:46:44;5.40;99.90
38458;DHT22;24239;48.058;10.486;2023-11-22T01:49:31;5.50;99.90
38458;DHT22;24239;48.058;10.486;2023-11-22T01:52:17;5.50;99.90
38458;DHT22;24239;48.058;10.486;2023-11-22T01:55:03;5.50;99.90
38458;DHT22;24239;48.058;10.486;2023-11-22T01:57:51;5.40;99.90
38458;DHT22;24239;48.058;10.486;2023-11-22T02:00:44;5.50;99.90
38458;DHT22;24239;48.058;10.486;2023-11-22T02:03:31;5.40;99.90
38458;DHT22;24239;48.058;10.486;2023-11-22T02:06:19;5.50;99.90
38458;DHT22;24239;48.058;10.486;2023-11-22T02:09:07;5.50;99.90
38458;DHT22;24239;48.058;10.486;2023-11-22T02:11:58;5.40;99.90
38458;DHT22;24239;48.058;10.486;2023-11-22T02:14:44;5.60;99.90
38458;DHT22;24239;48.058;10.486;2023-11-22T02:17:30;5.50;99.90
38458;DHT22;24239;48.058;10.486;2023-11-22T02:20:16;5.50;99.90
38458;DHT22;24239;48.058;10.486;2023-11-22T02:23:08;5.50;99.90
38458;DHT22;24239;48.058;10.486;2023-11-22T02:25:54;5.50;99.90
38458;DHT22;24239;48.058;10.486;2023-11-22T02:28:40;5.50;99.90
38458;DHT22;24239;48.058;10.486;2023-11-22T02:31:26;5.50;99.90
38458;DHT22;24239;48.058;10.486;2023-11-22T02:34:13;5.40;99.90
38458;DHT22;24239;48.058;10.486;2023-11-22T02:36:59;5.40;99.90
38458;DHT22;24239;48.058;10.486;2023-11-22T02:40:08;5.40;99.90
38458;DHT22;24239;48.058;10.486;2023-11-22T02:42:52;5.50;99.90
38458;DHT22;24239;48.058;10.486;2023-11-22T02:45:38;5.40;99.90
38458;DHT22;24239;48.058;10.486;2023-11-22T02:48:24;5.40;99.90
38458;DHT22;24239;48.058;10.486;2023-11-22T02:51:10;5.50;99.90
38458;DHT22;24239;48.058;10.486;2023-11-22T02:53:57;5.40;99.90
38458;DHT22;24239;48.058;10.486;2023-11-22T02:56:43;5.40;99.90
38458;DHT22;24239;48.058;10.486;2023-11-22T02:59:28;5.30;99.90
38458;DHT22;24239;48.058;10.486;2023-11-22T03:02:14;5.50;99.90
38458;DHT22;24239;48.058;10.486;2023-11-22T03:05:02;5.40;99.90
38458;DHT22;24239;48.058;10.486;2023-11-22T03:07:48;5.40;99.90
38458;DHT22;24239;48.058;10.486;2023-11-22T03:10:36;5.40;99.90
38458;DHT22;24239;48.058;10.486;2023-11-22T03:13:23;5.40;99.90
38458;DHT22;24239;48.058;10.486;2023-11-22T03:16:08;5.30;99.90
38458;DHT22;24239;48.058;10.486;2023-11-22T03:18:56;5.30;99.90
38458;DHT22;24239;48.058;10.486;2023-11-22T03:21:43;5.10;99.90
38458;DHT22;24239;48.058;10.486;2023-11-22T03:24:29;5.00;99.90
38458;DHT22;24239;48.058;10.486;2023-11-22T03:27:16;5.10;99.90
38458;DHT22;24239;48.058;10.486;2023-11-22T03:30:02;4.80;99.90
38458;DHT22;24239;48.058;10.486;2023-11-22T03:32:48;4.70;99.90
38458;DHT22;24239;48.058;10.486;2023-11-22T03:35:35;4.50;99.90
38458;DHT22;24239;48.058;10.486;2023-11-22T03:38:21;4.40;99.90
38458;DHT22;24239;48.058;10.486;2023-11-22T03:41:09;4.30;99.90
38458;DHT22;24239;48.058;10.486;2023-11-22T03:43:55;4.30;99.90
38458;DHT22;24239;48.058;10.486;2023-11-22T03:46:41;4.10;99.90
38458;DHT22;24239;48.058;10.486;2023-11-22T03:49:27;3.90;99.90
38458;DHT22;24239;48.058;10.486;2023-11-22T03:52:13;3.90;99.90
38458;DHT22;24239;48.058;10.486;2023-11-22T03:54:59;3.80;99.90
38458;DHT22;24239;48.058;10.486;2023-11-22T03:57:45;3.80;99.90
38458;DHT22;24239;48.058;10.486;2023-11-22T04:00:31;3.80;99.90
38458;DHT22;24239;48.058;10.486;2023-11-22T04:03:18;3.80;99.90
38458;DHT22;24239;48.058;10.486;2023-11-22T04:06:06;3.70;99.90
38458;DHT22;24239;48.058;10.486;2023-11-22T04:08:52;3.70;99.90
38458;DHT22;24239;48.058;10.486;2023-11-22T04:11:39;3.60;99.90
38458;DHT22;24239;48.058;10.486;2023-11-22T04:14:25;3.60;99.90
38458;DHT22;24239;48.058;10.486;2023-11-22T04:17:12;3.60;99.90
38458;DHT22;24239;48.058;10.486;2023-11-22T04:19:58;3.60;99.90
38458;DHT22;24239;48.058;10.486;2023-11-22T04:22:44;3.60;99.90
38458;DHT22;24239;48.058;10.486;2023-11-22T04:25:33;3.50;99.90
38458;DHT22;24239;48.058;10.486;2023-11-22T04:28:20;3.50;99.90
38458;DHT22;24239;48.058;10.486;2023-11-22T04:31:06;3.50;99.90
38458;DHT22;24239;48.058;10.486;2023-11-22T04:33:54;3.50;99.90
38458;DHT22;24239;48.058;10.486;2023-11-22T04:36:40;3.50;99.90
38458;DHT22;24239;48.058;10.486;2023-11-22T04:39:26;3.40;99.90
38458;DHT22;24239;48.058;10.486;2023-11-22T04:42:12;3.40;99.90
38458;DHT22;24239;48.058;10.486;2023-11-22T04:44:58;3.50;99.90
38458;DHT22;24239;48.058;10.486;2023-11-22T04:47:44;3.30;99.90
38458;DHT22;24239;48.058;10.486;2023-11-22T04:50:30;3.20;99.90
38458;DHT22;24239;48.058;10.486;2023-11-22T04:53:18;3.30;99.90
38458;DHT22;24239;48.058;10.486;2023-11-22T04:56:04;3.30;99.90
38458;DHT22;24239;48.058;10.486;2023-11-22T04:58:51;3.30;99.90
38458;DHT22;24239;48.058;10.486;2023-11-22T05:01:38;3.30;99.90
38458;DHT22;24239;48.058;10.486;2023-11-22T05:04:23;3.40;99.90
38458;DHT22;24239;48.058;10.486;2023-11-22T05:07:09;3.40;99.90
38458;DHT22;24239;48.058;10.486;2023-11-22T05:09:58;3.20;99.90
38458;DHT22;24239;48.058;10.486;2023-11-22T05:12:44;3.30;99.90
38458;DHT22;24239;48.058;10.486;2023-11-22T05:15:32;3.20;99.90
38458;DHT22;24239;48.058;10.486;2023-11-22T05:18:19;3.20;99.90
38458;DHT22;24239;48.058;10.486;2023-11-22T05:21:05;3.10;99.90
38458;DHT22;24239;48.058;10.486;2023-11-22T05:23:51;3.00;99.90
38458;DHT22;24239;48.058;10.486;2023-11-22T05:26:40;3.10;99.90
38458;DHT22;24239;48.058;10.486;2023-11-22T05:29:25;2.90;99.90
38458;DHT22;24239;48.058;10.486;2023-11-22T05:32:11;3.00;99.90
38458;DHT22;24239;48.058;10.486;2023-11-22T05:34:57;2.80;99.90
38458;DHT22;24239;48.058;10.486;2023-11-22T05:37:46;2.80;99.90
38458;DHT22;24239;48.058;10.486;2023-11-22T05:40:32;2.90;99.90
38458;DHT22;24239;48.058;10.486;2023-11-22T05:43:18;2.80;99.90
38458;DHT22;24239;48.058;10.486;2023-11-22T05:46:11;2.80;99.90
38458;DHT22;24239;48.058;10.486;2023-11-22T05:48:58;2.80;99.90
38458;DHT22;24239;48.058;10.486;2023-11-22T05:51:46;2.70;99.90
38458;DHT22;24239;48.058;10.486;2023-11-22T05:54:31;2.70;99.90
38458;DHT22;24239;48.058;10.486;2023-11-22T05:57:17;2.70;99.90
38458;DHT22;24239;48.058;10.486;2023-11-22T06:00:05;2.60;99.90
38458;DHT22;24239;48.058;10.486;2023-11-22T06:02:51;2.70;99.90
38458;DHT22;24239;48.058;10.486;2023-11-22T06:05:37;2.50;99.90
38458;DHT22;24239;48.058;10.486;2023-11-22T06:08:23;2.50;99.90
38458;DHT22;24239;48.058;10.486;2023-11-22T06:11:09;2.60;99.90
38458;DHT22;24239;48.058;10.486;2023-11-22T06:13:55;2.50;99.90
38458;DHT22;24239;48.058;10.486;2023-11-22T06:16:41;2.50;99.90
38458;DHT22;24239;48.058;10.486;2023-11-22T06:19:27;2.50;99.90
38458;DHT22;24239;48.058;10.486;2023-11-22T06:22:12;2.50;99.90
38458;DHT22;24239;48.058;10.486;2023-11-22T06:24:58;2.60;99.90
38458;DHT22;24239;48.058;10.486;2023-11-22T06:27:44;2.50;99.90
38458;DHT22;24239;48.058;10.486;2023-11-22T06:30:30;2.60;99.90
38458;DHT22;24239;48.058;10.486;2023-11-22T06:33:16;2.60;99.90
38458;DHT22;24239;48.058;10.486;2023-11-22T06:36:02;2.80;99.90
38458;DHT22;24239;48.058;10.486;2023-11-22T06:38:49;2.30;99.90
38458;DHT22;24239;48.058;10.486;2023-11-22T06:41:35;2.50;99.90
38458;DHT22;24239;48.058;10.486;2023-11-22T06:44:21;2.50;99.90
38458;DHT22;24239;48.058;10.486;2023-11-22T06:47:08;2.50;99.90
38458;DHT22;24239;48.058;10.486;2023-11-22T06:49:54;2.40;99.90
38458;DHT22;24239;48.058;10.486;2023-11-22T06:52:40;2.40;99.90
38458;DHT22;24239;48.058;10.486;2023-11-22T06:55:26;2.40;99.90
38458;DHT22;24239;48.058;10.486;2023-11-22T06:58:13;2.50;99.90
38458;DHT22;24239;48.058;10.486;2023-11-22T07:01:00;2.30;99.90
38458;DHT22;24239;48.058;10.486;2023-11-22T07:03:46;2.40;99.90
38458;DHT22;24239;48.058;10.486;2023-11-22T07:06:32;2.40;99.90
38458;DHT22;24239;48.058;10.486;2023-11-22T07:09:18;2.40;99.90
38458;DHT22;24239;48.058;10.486;2023-11-22T07:12:04;2.40;99.90
38458;DHT22;24239;48.058;10.486;2023-11-22T07:14:51;2.30;99.90
38458;DHT22;24239;48.058;10.486;2023-11-22T07:17:37;2.30;99.90
38458;DHT22;24239;48.058;10.486;2023-11-22T07:20:24;2.30;99.90
38458;DHT22;24239;48.058;10.486;2023-11-22T07:23:10;2.20;99.90
38458;DHT22;24239;48.058;10.486;2023-11-22T07:25:59;2.30;99.90
38458;DHT22;24239;48.058;10.486;2023-11-22T07:28:44;2.30;99.90
38458;DHT22;24239;48.058;10.486;2023-11-22T07:31:33;2.10;99.90
38458;DHT22;24239;48.058;10.486;2023-11-22T07:34:19;1.90;99.90
38458;DHT22;24239;48.058;10.486;2023-11-22T07:37:05;2.20;99.90
38458;DHT22;24239;48.058;10.486;2023-11-22T07:39:54;1.90;99.90
38458;DHT22;24239;48.058;10.486;2023-11-22T07:42:41;1.80;99.90
38458;DHT22;24239;48.058;10.486;2023-11-22T07:45:27;1.80;99.90
38458;DHT22;24239;48.058;10.486;2023-11-22T07:48:13;1.70;99.90
38458;DHT22;24239;48.058;10.486;2023-11-22T07:50:59;1.60;99.90
38458;DHT22;24239;48.058;10.486;2023-11-22T07:53:45;1.50;99.90
38458;DHT22;24239;48.058;10.486;2023-11-22T07:56:31;1.50;99.90
38458;DHT22;24239;48.058;10.486;2023-11-22T07:59:18;1.50;99.90
38458;DHT22;24239;48.058;10.486;2023-11-22T08:02:05;1.40;99.90
38458;DHT22;24239;48.058;10.486;2023-11-22T08:04:56;1.40;99.90
38458;DHT22;24239;48.058;10.486;2023-11-22T08:07:42;1.80;99.90
38458;DHT22;24239;48.058;10.486;2023-11-22T08:10:29;1.40;99.90
38458;DHT22;24239;48.058;10.486;2023-11-22T08:13:15;1.50;99.90
38458;DHT22;24239;48.058;10.486;2023-11-22T08:16:03;1.60;99.90
38458;DHT22;24239;48.058;10.486;2023-11-22T08:18:49;1.60;99.90
38458;DHT22;24239;48.058;10.486;2023-11-22T08:21:36;1.50;99.90
38458;DHT22;24239;48.058;10.486;2023-11-22T08:24:22;1.60;99.90
38458;DHT22;24239;48.058;10.486;2023-11-22T08:27:08;1.80;99.90
38458;DHT22;24239;48.058;10.486;2023-11-22T08:29:54;1.70;99.90
38458;DHT22;24239;48.058;10.486;2023-11-22T08:32:50;1.70;99.90
38458;DHT22;24239;48.058;10.486;2023-11-22T08:35:57;1.70;99.90
38458;DHT22;24239;48.058;10.486;2023-11-22T08:38:45;1.60;99.90
38458;DHT22;24239;48.058;10.486;2023-11-22T08:41:32;1.60;99.90
38458;DHT22;24239;48.058;10.486;2023-11-22T08:44:21;1.80;99.90
38458;DHT22;24239;48.058;10.486;2023-11-22T08:47:28;1.50;99.90
38458;DHT22;24239;48.058;10.486;2023-11-22T08:50:23;1.30;99.90
38458;DHT22;24239;48.058;10.486;2023-11-22T08:53:26;1.50;99.90
38458;DHT22;24239;48.058;10.486;2023-11-22T08:56:12;1.50;99.90
38458;DHT22;24239;48.058;10.486;2023-11-22T08:58:57;1.60;99.90
38458;DHT22;24239;48.058;10.486;2023-11-22T09:01:46;1.60;99.90
38458;DHT22;24239;48.058;10.486;2023-11-22T09:04:35;1.60;99.90
38458;DHT22;24239;48.058;10.486;2023-11-22T09:07:23;1.60;99.90
38458;DHT22;24239;48.058;10.486;2023-11-22T09:10:27;1.20;99.90
38458;DHT22;24239;48.058;10.486;2023-11-22T09:13:39;1.40;99.90
38458;DHT22;24239;48.058;10.486;2023-11-22T09:16:25;1.00;99.90
38458;DHT22;24239;48.058;10.486;2023-11-22T09:22:47;1.20;99.90
38458;DHT22;24239;48.058;10.486;2023-11-22T09:28:57;1.20;99.90
38458;DHT22;24239;48.058;10.486;2023-11-22T09:31:44;1.20;99.90
38458;DHT22;24239;48.058;10.486;2023-11-22T09:34:33;1.20;99.90
38458;DHT22;24239;48.058;10.486;2023-11-22T09:37:23;1.20;99.90
38458;DHT22;24239;48.058;10.486;2023-11-22T09:40:10;1.30;99.90
38458;DHT22;24239;48.058;10.486;2023-11-22T09:42:58;1.30;99.90
38458;DHT22;24239;48.058;10.486;2023-11-22T09:45:44;1.40;99.90
38458;DHT22;24239;48.058;10.486;2023-11-22T09:48:38;1.50;99.90
38458;DHT22;24239;48.058;10.486;2023-11-22T09:51:28;1.40;99.90
38458;DHT22;24239;48.058;10.486;2023-11-22T09:54:20;1.50;99.90
38458;DHT22;24239;48.058;10.486;2023-11-22T09:57:07;1.50;99.90
38458;DHT22;24239;48.058;10.486;2023-11-22T09:59:56;1.60;99.90
38458;DHT22;24239;48.058;10.486;2023-11-22T10:02:45;1.60;99.90
38458;DHT22;24239;48.058;10.486;2023-11-22T10:05:31;1.60;99.90
38458;DHT22;24239;48.058;10.486;2023-11-22T10:11:43;1.60;99.90
38458;DHT22;24239;48.058;10.486;2023-11-22T10:25:06;1.60;99.90
38458;DHT22;24239;48.058;10.486;2023-11-22T10:28:05;1.60;99.90
38458;DHT22;24239;48.058;10.486;2023-11-22T10:30:52;1.40;99.90
38458;DHT22;24239;48.058;10.486;2023-11-22T10:33:39;1.50;99.90
38458;DHT22;24239;48.058;10.486;2023-11-22T10:36:26;1.50;99.90
38458;DHT22;24239;48.058;10.486;2023-11-22T10:39:12;1.60;99.90
38458;DHT22;24239;48.058;10.486;2023-11-22T10:42:02;1.60;99.90
38458;DHT22;24239;48.058;10.486;2023-11-22T10:44:51;1.40;99.90
38458;DHT22;24239;48.058;10.486;2023-11-22T10:47:40;1.40;99.90
38458;DHT22;24239;48.058;10.486;2023-11-22T10:50:28;1.40;99.90
38458;DHT22;24239;48.058;10.486;2023-11-22T10:53:20;1.50;99.90
38458;DHT22;24239;48.058;10.486;2023-11-22T10:56:11;1.50;99.90
38458;DHT22;24239;48.058;10.486;2023-11-22T10:58:57;1.50;99.90
38458;DHT22;24239;48.058;10.486;2023-11-22T11:01:45;1.30;99.90
38458;DHT22;24239;48.058;10.486;2023-11-22T11:04:34;1.30;99.90
38458;DHT22;24239;48.058;10.486;2023-11-22T11:07:24;1.50;99.90
38458;DHT22;24239;48.058;10.486;2023-11-22T11:10:12;1.40;99.90
38458;DHT22;24239;48.058;10.486;2023-11-22T11:12:59;1.80;99.90
38458;DHT22;24239;48.058;10.486;2023-11-22T11:15:45;1.50;99.90
38458;DHT22;24239;48.058;10.486;2023-11-22T11:18:31;1.70;99.90
38458;DHT22;24239;48.058;10.486;2023-11-22T11:21:18;1.70;99.90
38458;DHT22;24239;48.058;10.486;2023-11-22T11:24:05;1.60;99.90
38458;DHT22;24239;48.058;10.486;2023-11-22T11:26:51;1.70;99.90
38458;DHT22;24239;48.058;10.486;2023-11-22T11:29:40;1.70;99.90
38458;DHT22;24239;48.058;10.486;2023-11-22T11:32:32;1.80;99.90
38458;DHT22;24239;48.058;10.486;2023-11-22T11:35:18;2.00;99.90
38458;DHT22;24239;48.058;10.486;2023-11-22T11:38:04;1.90;99.90
38458;DHT22;24239;48.058;10.486;2023-11-22T11:40:50;1.90;99.90
38458;DHT22;24239;48.058;10.486;2023-11-22T11:43:43;2.00;99.90
38458;DHT22;24239;48.058;10.486;2023-11-22T11:46:30;1.90;99.90
38458;DHT22;24239;48.058;10.486;2023-11-22T11:49:16;1.90;99.90
38458;DHT22;24239;48.058;10.486;2023-11-22T11:52:04;1.80;99.90
38458;DHT22;24239;48.058;10.486;2023-11-22T11:54:50;2.00;99.90
38458;DHT22;24239;48.058;10.486;2023-11-22T11:57:36;2.00;99.90
38458;DHT22;24239;48.058;10.486;2023-11-22T12:00:23;2.00;99.90
38458;DHT22;24239;48.058;10.486;2023-11-22T12:03:14;2.00;99.90
38458;DHT22;24239;48.058;10.486;2023-11-22T12:06:09;2.00;99.90
38458;DHT22;24239;48.058;10.486;2023-11-22T12:08:55;1.90;99.90
38458;DHT22;24239;48.058;10.486;2023-11-22T12:11:41;1.80;99.90
38458;DHT22;24239;48.058;10.486;2023-11-22T12:14:29;1.90;99.90
38458;DHT22;24239;48.058;10.486;2023-11-22T12:17:15;1.80;99.90
38458;DHT22;24239;48.058;10.486;2023-11-22T12:20:14;1.70;99.90
38458;DHT22;24239;48.058;10.486;2023-11-22T12:23:03;1.90;99.90
38458;DHT22;24239;48.058;10.486;2023-11-22T12:25:53;1.90;99.90
38458;DHT22;24239;48.058;10.486;2023-11-22T12:28:39;1.90;99.90
38458;DHT22;24239;48.058;10.486;2023-11-22T12:31:26;2.10;99.90
38458;DHT22;24239;48.058;10.486;2023-11-22T12:34:15;2.20;99.90
38458;DHT22;24239;48.058;10.486;2023-11-22T12:37:01;2.20;99.90
38458;DHT22;24239;48.058;10.486;2023-11-22T12:39:47;2.40;99.90
38458;DHT22;24239;48.058;10.486;2023-11-22T12:42:33;2.60;99.90
38458;DHT22;24239;48.058;10.486;2023-11-22T12:45:30;2.70;99.90
38458;DHT22;24239;48.058;10.486;2023-11-22T12:48:22;2.90;99.90
38458;DHT22;24239;48.058;10.486;2023-11-22T12:51:15;3.00;99.90
38458;DHT22;24239;48.058;10.486;2023-11-22T12:54:02;2.90;99.90
38458;DHT22;24239;48.058;10.486;2023-11-22T12:56:55;2.70;99.90
38458;DHT22;24239;48.058;10.486;2023-11-22T12:59:43;2.60;99.90
38458;DHT22;24239;48.058;10.486;2023-11-22T13:02:29;2.60;99.90
38458;DHT22;24239;48.058;10.486;2023-11-22T13:05:15;2.50;99.90
38458;DHT22;24239;48.058;10.486;2023-11-22T13:08:02;2.50;99.90
38458;DHT22;24239;48.058;10.486;2023-11-22T13:10:49;2.40;99.90
38458;DHT22;24239;48.058;10.486;2023-11-22T13:13:45;2.60;99.90
38458;DHT22;24239;48.058;10.486;2023-11-22T13:16:32;2.20;99.90
38458;DHT22;24239;48.058;10.486;2023-11-22T13:19:19;2.20;99.90
38458;DHT22;24239;48.058;10.486;2023-11-22T13:22:05;2.10;99.90
38458;DHT22;24239;48.058;10.486;2023-11-22T13:24:53;2.10;99.90
38458;DHT22;24239;48.058;10.486;2023-11-22T13:27:39;2.00;99.90
38458;DHT22;24239;48.058;10.486;2023-11-22T13:30:28;2.20;99.90
38458;DHT22;24239;48.058;10.486;2023-11-22T13:33:14;2.00;99.90
38458;DHT22;24239;48.058;10.486;2023-11-22T13:36:00;2.10;99.90
38458;DHT22;24239;48.058;10.486;2023-11-22T13:38:46;2.00;99.90
38458;DHT22;24239;48.058;10.486;2023-11-22T13:41:31;2.00;99.90
38458;DHT22;24239;48.058;10.486;2023-11-22T13:44:20;2.00;99.90
38458;DHT22;24239;48.058;10.486;2023-11-22T13:47:06;1.90;99.90
38458;DHT22;24239;48.058;10.486;2023-11-22T13:49:58;1.90;99.90
38458;DHT22;24239;48.058;10.486;2023-11-22T13:52:50;1.90;99.90
38458;DHT22;24239;48.058;10.486;2023-11-22T13:55:37;1.90;99.90
38458;DHT22;24239;48.058;10.486;2023-11-22T13:58:24;1.90;99.90
38458;DHT22;24239;48.058;10.486;2023-11-22T14:01:10;1.80;99.90
38458;DHT22;24239;48.058;10.486;2023-11-22T14:04:02;1.80;99.90
38458;DHT22;24239;48.058;10.486;2023-11-22T14:06:51;1.80;99.90
38458;DHT22;24239;48.058;10.486;2023-11-22T14:09:37;1.80;99.90
38458;DHT22;24239;48.058;10.486;2023-11-22T14:12:26;1.90;99.90
38458;DHT22;24239;48.058;10.486;2023-11-22T14:15:12;1.90;99.90
38458;DHT22;24239;48.058;10.486;2023-11-22T14:17:58;1.90;99.90
38458;DHT22;24239;48.058;10.486;2023-11-22T14:20:46;2.00;99.90
38458;DHT22;24239;48.058;10.486;2023-11-22T14:23:32;1.80;99.90
38458;DHT22;24239;48.058;10.486;2023-11-22T14:26:19;1.80;99.90
38458;DHT22;24239;48.058;10.486;2023-11-22T14:29:04;1.70;99.90
38458;DHT22;24239;48.058;10.486;2023-11-22T14:31:52;1.70;99.90
38458;DHT22;24239;48.058;10.486;2023-11-22T14:34:38;1.70;99.90
38458;DHT22;24239;48.058;10.486;2023-11-22T14:37:29;1.60;99.90
38458;DHT22;24239;48.058;10.486;2023-11-22T14:40:18;1.60;99.90
38458;DHT22;24239;48.058;10.486;2023-11-22T14:43:06;1.70;99.90
38458;DHT22;24239;48.058;10.486;2023-11-22T14:45:52;1.80;99.90
38458;DHT22;24239;48.058;10.486;2023-11-22T14:48:39;1.60;99.90
38458;DHT22;24239;48.058;10.486;2023-11-22T14:51:25;1.50;99.90
38458;DHT22;24239;48.058;10.486;2023-11-22T14:54:11;1.60;99.90
38458;DHT22;24239;48.058;10.486;2023-11-22T14:56:57;1.50;99.90
38458;DHT22;24239;48.058;10.486;2023-11-22T14:59:47;1.60;99.90
38458;DHT22;24239;48.058;10.486;2023-11-22T15:02:35;1.60;99.90
38458;DHT22;24239;48.058;10.486;2023-11-22T15:05:22;1.60;99.90
38458;DHT22;24239;48.058;10.486;2023-11-22T15:08:08;1.60;99.90
38458;DHT22;24239;48.058;10.486;2023-11-22T15:10:55;1.50;99.90
38458;DHT22;24239;48.058;10.486;2023-11-22T15:13:41;1.30;99.90
38458;DHT22;24239;48.058;10.486;2023-11-22T15:16:27;1.30;99.90
38458;DHT22;24239;48.058;10.486;2023-11-22T15:19:13;1.40;99.90
38458;DHT22;24239;48.058;10.486;2023-11-22T15:22:02;1.50;99.90
38458;DHT22;24239;48.058;10.486;2023-11-22T15:24:49;1.40;99.90
38458;DHT22;24239;48.058;10.486;2023-11-22T15:27:38;1.20;99.90
38458;DHT22;24239;48.058;10.486;2023-11-22T15:30:25;1.20;99.90
38458;DHT22;24239;48.058;10.486;2023-11-22T15:33:13;1.20;99.90
38458;DHT22;24239;48.058;10.486;2023-11-22T15:35:59;1.10;99.90
38458;DHT22;24239;48.058;10.486;2023-11-22T15:38:46;1.20;99.90
38458;DHT22;24239;48.058;10.486;2023-11-22T15:41:32;1.20;99.90
38458;DHT22;24239;48.058;10.486;2023-11-22T15:44:18;1.40;99.90
38458;DHT22;24239;48.058;10.486;2023-11-22T15:47:07;1.20;99.90
38458;DHT22;24239;48.058;10.486;2023-11-22T15:49:54;1.10;99.90
38458;DHT22;24239;48.058;10.486;2023-11-22T15:52:40;1.10;99.90
38458;DHT22;24239;48.058;10.486;2023-11-22T15:55:26;1.10;99.90
38458;DHT22;24239;48.058;10.486;2023-11-22T15:58:12;1.10;99.90
38458;DHT22;24239;48.058;10.486;2023-11-22T16:01:00;1.10;99.90
38458;DHT22;24239;48.058;10.486;2023-11-22T16:03:47;1.00;99.90
38458;DHT22;24239;48.058;10.486;2023-11-22T16:06:34;1.00;99.90
38458;DHT22;24239;48.058;10.486;2023-11-22T16:09:23;1.10;99.90
38458;DHT22;24239;48.058;10.486;2023-11-22T16:12:09;1.20;99.90
38458;DHT22;24239;48.058;10.486;2023-11-22T16:14:55;1.10;99.90
38458;DHT22;24239;48.058;10.486;2023-11-22T16:17:41;1.10;99.90
38458;DHT22;24239;48.058;10.486;2023-11-22T16:20:27;0.90;99.90
38458;DHT22;24239;48.058;10.486;2023-11-22T16:23:13;1.00;99.90
38458;DHT22;24239;48.058;10.486;2023-11-22T16:26:01;1.00;99.90
38458;DHT22;24239;48.058;10.486;2023-11-22T16:28:47;1.00;99.90
38458;DHT22;24239;48.058;10.486;2023-11-22T16:31:34;1.10;99.90
38458;DHT22;24239;48.058;10.486;2023-11-22T16:34:20;1.00;99.90
38458;DHT22;24239;48.058;10.486;2023-11-22T16:37:06;1.10;99.90
38458;DHT22;24239;48.058;10.486;2023-11-22T16:39:53;1.00;99.90
38458;DHT22;24239;48.058;10.486;2023-11-22T16:42:39;1.00;99.90
38458;DHT22;24239;48.058;10.486;2023-11-22T16:45:25;1.00;99.90
38458;DHT22;24239;48.058;10.486;2023-11-22T16:48:13;1.10;99.90
38458;DHT22;24239;48.058;10.486;2023-11-22T16:51:01;1.00;99.90
38458;DHT22;24239;48.058;10.486;2023-11-22T16:53:47;1.00;99.90
38458;DHT22;24239;48.058;10.486;2023-11-22T16:56:33;1.00;99.90
38458;DHT22;24239;48.058;10.486;2023-11-22T16:59:18;0.90;99.90
38458;DHT22;24239;48.058;10.486;2023-11-22T17:02:05;0.90;99.90
38458;DHT22;24239;48.058;10.486;2023-11-22T17:04:51;1.10;99.90
38458;DHT22;24239;48.058;10.486;2023-11-22T17:07:41;0.90;99.90
38458;DHT22;24239;48.058;10.486;2023-11-22T17:10:27;1.00;99.90
38458;DHT22;24239;48.058;10.486;2023-11-22T17:13:13;1.00;99.90
38458;DHT22;24239;48.058;10.486;2023-11-22T17:16:02;1.00;99.90
38458;DHT22;24239;48.058;10.486;2023-11-22T17:18:48;1.00;99.90
38458;DHT22;24239;48.058;10.486;2023-11-22T17:21:33;1.00;99.90
38458;DHT22;24239;48.058;10.486;2023-11-22T17:24:19;1.00;99.90
38458;DHT22;24239;48.058;10.486;2023-11-22T17:27:05;1.00;99.90
38458;DHT22;24239;48.058;10.486;2023-11-22T17:29:51;1.10;99.90
38458;DHT22;24239;48.058;10.486;2023-11-22T17:32:39;1.10;99.90
38458;DHT22;24239;48.058;10.486;2023-11-22T17:35:25;1.00;99.90
38458;DHT22;24239;48.058;10.486;2023-11-22T17:38:11;1.10;99.90
38458;DHT22;24239;48.058;10.486;2023-11-22T17:40:57;1.00;99.90
38458;DHT22;24239;48.058;10.486;2023-11-22T17:43:45;1.10;99.90
38458;DHT22;24239;48.058;10.486;2023-11-22T17:46:31;1.00;99.90
38458;DHT22;24239;48.058;10.486;2023-11-22T17:49:19;1.20;99.90
38458;DHT22;24239;48.058;10.486;2023-11-22T17:52:05;1.30;99.90
38458;DHT22;24239;48.058;10.486;2023-11-22T17:54:51;1.00;99.90
38458;DHT22;24239;48.058;10.486;2023-11-22T17:57:37;1.40;99.90